Terminal Aerodrome Forecast
Issued by NWS

Home | Current Version | Previous Version | Text Only | Print | Product List | Glossary On
Versions: 1 2 3 4 5 6 7 8 9 10 11 12 13 14 15 16 17 18 19
700
FTUS43 KMPX 271136 CCA
TAFRNH
TAF COR
KRNH 271136Z 2712/2812 36005KT P6SM SKC
     FM272000 01005KT P6SM SCT060
     FM280300 00000KT P6SM SKC
      TEMPO 2809/2812 3SM MIFG=

USA.gov is the U.S. government's official web portal to all federal, state and local government web resources and services.